Time;durP1;ratioP1;P1;durP2;ratioP2;P2;SDS_P1;SDS_P2;PMS_P1;PMS_P2;Temp;Humidity;BMP_temperature;BMP_pressure;BME280_temperature;BME280_humidity;BME280_pressure;Samples;Min_cycle;Max_cycle;Signal;HPM_P1;HPM_P2
2021/01/04 00:00:50;;;;;;;4.15;3.75;;;;;;;;;;5060095;28;20445;-46
2021/01/04 00:03:34;;;;;;;4.13;3.38;;;;;;;;;;5044021;28;20179;-46
2021/01/04 00:06:00;;;;;;;3.70;3.33;;;;;;;;;;5056729;28;20179;-46
2021/01/04 00:08:38;;;;;;;4.47;3.92;;;;;;;;;;5041462;28;20275;-45
2021/01/04 00:11:16;;;;;;;4.15;3.63;;;;;;;;;;5061485;28;20186;-46
2021/01/04 00:13:56;;;;;;;4.07;3.67;;;;;;;;;;5072888;28;20198;-46
2021/01/04 00:16:44;;;;;;;3.90;3.55;;;;;;;;;;5061341;28;20187;-46
2021/01/04 00:19:15;;;;;;;3.75;3.45;;;;;;;;;;5062171;28;20189;-46
2021/01/04 00:22:00;;;;;;;4.97;3.70;;;;;;;;;;5069357;28;20349;-46
2021/01/04 00:24:34;;;;;;;8.13;3.92;;;;;;;;;;5061726;28;20262;-46
2021/01/04 00:27:08;;;;;;;5.13;4.45;;;;;;;;;;5063590;28;20184;-46
2021/01/04 00:29:35;;;;;;;4.28;3.55;;;;;;;;;;5070473;28;20210;-46
2021/01/04 00:32:04;;;;;;;4.20;3.65;;;;;;;;;;5067223;28;20198;-46
2021/01/04 00:34:42;;;;;;;4.70;3.53;;;;;;;;;;5057557;28;20191;-46
2021/01/04 00:37:29;;;;;;;4.10;3.50;;;;;;;;;;5077619;28;20167;-46
2021/01/04 00:40:03;;;;;;;4.25;3.85;;;;;;;;;;5073809;28;20437;-46
2021/01/04 00:42:41;;;;;;;4.30;3.80;;;;;;;;;;5070262;28;20179;-46
2021/01/04 00:45:16;;;;;;;3.63;3.17;;;;;;;;;;5060626;28;20253;-46
2021/01/04 00:47:51;;;;;;;3.95;3.60;;;;;;;;;;5060070;28;20186;-46
2021/01/04 00:50:42;;;;;;;4.47;4.00;;;;;;;;;;5062230;28;20261;-46
2021/01/04 00:53:12;;;;;;;4.65;3.42;;;;;;;;;;5075029;28;20584;-46
2021/01/04 00:55:57;;;;;;;4.43;3.65;;;;;;;;;;5064967;28;20497;-46
2021/01/04 00:58:49;;;;;;;4.53;4.13;;;;;;;;;;5058238;28;20175;-46
2021/01/04 01:01:19;;;;;;;3.95;3.55;;;;;;;;;;5041162;28;20560;-46
2021/01/04 01:04:03;;;;;;;4.20;3.42;;;;;;;;;;5066933;28;20167;-46
2021/01/04 01:06:35;;;;;;;3.92;3.63;;;;;;;;;;5058254;28;20185;-46
2021/01/04 01:09:01;;;;;;;4.15;3.58;;;;;;;;;;5069637;28;20220;-46
2021/01/04 01:11:47;;;;;;;4.15;3.67;;;;;;;;;;5053171;28;20505;-46
2021/01/04 01:14:16;;;;;;;3.80;3.40;;;;;;;;;;5036373;28;20219;-46
2021/01/04 01:17:11;;;;;;;5.15;3.70;;;;;;;;;;5058990;28;20233;-46
2021/01/04 01:19:43;;;;;;;4.80;3.53;;;;;;;;;;5027432;28;20187;-46
2021/01/04 01:22:12;;;;;;;3.90;3.42;;;;;;;;;;5052060;28;20175;-46
2021/01/04 01:24:38;;;;;;;4.03;3.63;;;;;;;;;;5055650;28;20195;-46
2021/01/04 01:27:24;;;;;;;3.95;3.63;;;;;;;;;;5060125;28;20458;-46
2021/01/04 01:29:50;;;;;;;3.97;3.58;;;;;;;;;;5062099;28;20559;-46
2021/01/04 01:32:31;;;;;;;3.58;3.28;;;;;;;;;;5060769;28;20193;-46
2021/01/04 01:35:13;;;;;;;4.05;3.65;;;;;;;;;;5057169;28;20484;-46
2021/01/04 01:37:48;;;;;;;3.85;3.40;;;;;;;;;;5071701;28;20178;-46
2021/01/04 01:40:29;;;;;;;4.13;3.72;;;;;;;;;;5061233;28;20190;-46
2021/01/04 01:42:58;;;;;;;4.35;3.50;;;;;;;;;;5056764;28;20462;-46
2021/01/04 01:45:38;;;;;;;4.15;3.75;;;;;;;;;;5072180;28;20190;-46
2021/01/04 01:48:10;;;;;;;4.05;3.55;;;;;;;;;;5074529;28;20456;-46
2021/01/04 01:50:46;;;;;;;3.97;3.45;;;;;;;;;;5070929;28;20193;-46
2021/01/04 01:53:24;;;;;;;3.55;3.25;;;;;;;;;;5058651;28;20268;-46
2021/01/04 01:55:52;;;;;;;4.50;3.58;;;;;;;;;;5046177;28;20198;-46
2021/01/04 01:58:37;;;;;;;4.03;3.60;;;;;;;;;;5075681;28;20171;-46
2021/01/04 02:01:22;;;;;;;4.03;3.63;;;;;;;;;;5042255;28;20200;-45
2021/01/04 02:04:03;;;;;;;3.67;3.38;;;;;;;;;;5061960;28;20257;-46
2021/01/04 02:06:44;;;;;;;3.55;3.17;;;;;;;;;;5060192;28;20175;-46
2021/01/04 02:09:19;;;;;;;4.35;3.55;;;;;;;;;;5053957;28;20175;-46
2021/01/04 02:11:45;;;;;;;4.03;3.58;;;;;;;;;;5057108;28;20174;-46
2021/01/04 02:14:17;;;;;;;4.38;3.97;;;;;;;;;;5056329;28;20691;-46
2021/01/04 02:16:55;;;;;;;3.55;3.25;;;;;;;;;;5064627;28;20197;-46
2021/01/04 02:19:47;;;;;;;3.40;3.10;;;;;;;;;;5055788;28;20219;-46
2021/01/04 02:22:25;;;;;;;4.10;3.47;;;;;;;;;;5032433;28;20183;-46
2021/01/04 02:24:51;;;;;;;4.78;3.72;;;;;;;;;;5061170;28;20786;-46
2021/01/04 02:27:36;;;;;;;4.25;3.58;;;;;;;;;;5035573;28;20180;-46
2021/01/04 02:30:03;;;;;;;3.75;3.40;;;;;;;;;;5060417;28;20190;-47
2021/01/04 02:32:29;;;;;;;3.90;3.50;;;;;;;;;;5064537;28;20178;-46
2021/01/04 02:34:56;;;;;;;5.47;3.90;;;;;;;;;;5068213;28;20201;-46
2021/01/04 02:37:24;;;;;;;4.68;3.58;;;;;;;;;;5058570;28;20178;-46
2021/01/04 02:39:55;;;;;;;3.58;3.28;;;;;;;;;;5055466;28;20167;-46
2021/01/04 02:42:23;;;;;;;4.20;3.47;;;;;;;;;;5056663;28;20178;-46
2021/01/04 02:44:50;;;;;;;3.97;3.58;;;;;;;;;;5062720;28;20186;-46
2021/01/04 02:47:16;;;;;;;3.65;3.35;;;;;;;;;;5039947;28;20179;-46
2021/01/04 02:49:52;;;;;;;4.10;3.80;;;;;;;;;;5053921;28;20254;-46
2021/01/04 02:52:22;;;;;;;3.78;3.38;;;;;;;;;;5065750;28;20187;-46
2021/01/04 02:54:52;;;;;;;4.20;3.80;;;;;;;;;;5068830;28;20210;-46
2021/01/04 02:57:28;;;;;;;4.18;3.78;;;;;;;;;;5074625;28;20604;-46
2021/01/04 02:59:58;;;;;;;3.53;3.22;;;;;;;;;;5074702;28;20243;-46
2021/01/04 03:02:36;;;;;;;4.03;3.63;;;;;;;;;;5060936;28;20190;-46
2021/01/04 03:05:04;;;;;;;3.95;3.55;;;;;;;;;;5065708;28;20184;-46
2021/01/04 03:07:35;;;;;;;4.57;3.80;;;;;;;;;;5054026;28;20229;-46
2021/01/04 03:10:05;;;;;;;3.38;3.08;;;;;;;;;;5054461;28;20163;-46
2021/01/04 03:12:32;;;;;;;4.03;3.55;;;;;;;;;;5070191;28;20260;-46
2021/01/04 03:14:58;;;;;;;4.03;3.63;;;;;;;;;;5059787;28;20209;-45
2021/01/04 03:17:33;;;;;;;3.60;3.30;;;;;;;;;;5050450;28;20172;-45
2021/01/04 03:20:02;;;;;;;3.97;3.58;;;;;;;;;;5055957;28;20174;-45
2021/01/04 03:22:28;;;;;;;4.05;3.65;;;;;;;;;;5067017;28;20193;-45
2021/01/04 03:24:54;;;;;;;3.75;3.42;;;;;;;;;;5067358;28;20186;-45
2021/01/04 03:27:26;;;;;;;3.70;3.40;;;;;;;;;;5054359;28;20270;-45
2021/01/04 03:29:52;;;;;;;3.95;3.58;;;;;;;;;;5066424;28;20196;-45
2021/01/04 03:32:19;;;;;;;3.90;3.60;;;;;;;;;;5035012;28;20291;-46
2021/01/04 03:34:45;;;;;;;4.25;3.78;;;;;;;;;;5062747;28;20209;-45
2021/01/04 03:37:11;;;;;;;3.80;3.42;;;;;;;;;;5058913;28;20220;-46
2021/01/04 03:39:37;;;;;;;4.05;3.65;;;;;;;;;;5059767;28;20186;-45
2021/01/04 03:42:03;;;;;;;3.90;3.55;;;;;;;;;;5054268;28;20664;-45
2021/01/04 03:44:29;;;;;;;4.53;4.13;;;;;;;;;;5064950;28;20175;-46
2021/01/04 03:46:56;;;;;;;4.40;4.00;;;;;;;;;;5066087;28;20178;-46
2021/01/04 03:49:22;;;;;;;4.50;3.75;;;;;;;;;;5057718;28;20191;-46
2021/01/04 03:51:52;;;;;;;4.05;3.65;;;;;;;;;;5076040;28;20190;-46
2021/01/04 03:54:18;;;;;;;3.95;3.55;;;;;;;;;;5058262;28;20252;-46
2021/01/04 03:56:44;;;;;;;4.13;3.72;;;;;;;;;;5046803;28;20179;-45
2021/01/04 03:59:11;;;;;;;4.22;3.65;;;;;;;;;;5067341;28;20183;-45
2021/01/04 04:01:37;;;;;;;3.35;3.05;;;;;;;;;;5044416;28;20200;-45
2021/01/04 04:04:03;;;;;;;5.18;3.75;;;;;;;;;;5057917;28;20167;-45
2021/01/04 04:06:29;;;;;;;3.97;3.60;;;;;;;;;;5061824;28;20179;-45
2021/01/04 04:08:55;;;;;;;3.60;3.30;;;;;;;;;;5065805;28;20233;-45
2021/01/04 04:11:21;;;;;;;3.95;3.65;;;;;;;;;;5057603;28;20206;-45
2021/01/04 04:13:47;;;;;;;3.85;3.55;;;;;;;;;;5058040;28;20183;-45
2021/01/04 04:16:14;;;;;;;4.10;3.70;;;;;;;;;;5058512;28;20245;-45
2021/01/04 04:18:40;;;;;;;3.90;3.47;;;;;;;;;;5064992;28;20194;-45
2021/01/04 04:21:06;;;;;;;3.70;3.40;;;;;;;;;;5057160;28;20175;-46
2021/01/04 04:23:33;;;;;;;4.32;3.92;;;;;;;;;;5067532;28;20444;-45
2021/01/04 04:25:59;;;;;;;4.65;3.50;;;;;;;;;;5059211;28;20187;-45
2021/01/04 04:28:24;;;;;;;3.95;3.65;;;;;;;;;;5070705;28;20179;-45
2021/01/04 04:30:50;;;;;;;4.30;3.90;;;;;;;;;;5056947;28;20274;-45
2021/01/04 04:33:16;;;;;;;3.70;3.40;;;;;;;;;;5063894;28;20216;-45
2021/01/04 04:35:42;;;;;;;3.50;3.20;;;;;;;;;;5074730;28;20202;-45
2021/01/04 04:38:08;;;;;;;3.80;3.45;;;;;;;;;;5056688;28;20175;-45
2021/01/04 04:40:35;;;;;;;4.78;3.80;;;;;;;;;;5071636;28;20206;-46
2021/01/04 04:43:11;;;;;;;4.03;3.63;;;;;;;;;;5058203;28;20210;-45
2021/01/04 04:45:37;;;;;;;3.75;3.40;;;;;;;;;;5051332;28;20203;-45
2021/01/04 04:48:02;;;;;;;4.03;3.60;;;;;;;;;;5050279;28;20225;-45
2021/01/04 04:50:37;;;;;;;3.80;3.50;;;;;;;;;;5061666;28;20188;-45
2021/01/04 04:53:06;;;;;;;4.10;3.70;;;;;;;;;;5055735;28;20261;-46
2021/01/04 04:55:32;;;;;;;3.58;3.28;;;;;;;;;;5066670;28;20234;-45
2021/01/04 04:57:58;;;;;;;4.35;3.90;;;;;;;;;;5063685;28;20221;-46
2021/01/04 05:00:43;;;;;;;4.25;3.40;;;;;;;;;;5053373;28;20295;-45
2021/01/04 05:03:28;;;;;;;4.45;3.42;;;;;;;;;;5062863;28;20206;-46
2021/01/04 05:05:54;;;;;;;4.03;3.65;;;;;;;;;;5073620;28;20193;-45
2021/01/04 05:08:40;;;;;;;3.67;3.38;;;;;;;;;;5047822;28;20197;-46
2021/01/04 05:11:08;;;;;;;5.68;3.90;;;;;;;;;;5058405;28;20183;-45
2021/01/04 05:13:37;;;;;;;3.47;3.17;;;;;;;;;;5076284;28;20182;-45
2021/01/04 05:16:06;;;;;;;3.78;3.45;;;;;;;;;;5066560;28;20195;-46
2021/01/04 05:18:35;;;;;;;5.93;3.35;;;;;;;;;;5060731;28;20272;-48
2021/01/04 05:21:07;;;;;;;5.40;4.03;;;;;;;;;;5056517;28;20304;-48
2021/01/04 05:23:51;;;;;;;3.72;3.40;;;;;;;;;;5073055;28;20174;-48
2021/01/04 05:26:17;;;;;;;7.78;4.50;;;;;;;;;;5052614;28;20453;-48
2021/01/04 05:29:01;;;;;;;4.38;3.70;;;;;;;;;;5055906;28;20179;-48
2021/01/04 05:31:27;;;;;;;5.35;3.28;;;;;;;;;;5076462;28;20210;-48
2021/01/04 05:33:56;;;;;;;7.38;3.95;;;;;;;;;;5067377;28;20562;-48
2021/01/04 05:36:35;;;;;;;4.57;3.53;;;;;;;;;;5063498;28;21609;-48
2021/01/04 05:39:13;;;;;;;3.83;3.45;;;;;;;;;;5060153;28;20176;-48
2021/01/04 05:41:48;;;;;;;5.13;3.83;;;;;;;;;;5059789;28;20249;-48
2021/01/04 05:44:23;;;;;;;5.00;3.60;;;;;;;;;;5056033;28;20178;-47
2021/01/04 05:46:59;;;;;;;8.65;4.25;;;;;;;;;;5060099;28;20179;-48
2021/01/04 05:49:34;;;;;;;3.70;3.40;;;;;;;;;;5055576;28;20438;-48
2021/01/04 05:52:01;;;;;;;3.85;3.47;;;;;;;;;;5068483;28;20183;-48
2021/01/04 05:54:35;;;;;;;4.15;3.45;;;;;;;;;;5041210;28;20260;-48
2021/01/04 05:57:12;;;;;;;5.07;3.72;;;;;;;;;;5060790;28;20179;-48
2021/01/04 05:59:51;;;;;;;5.32;3.50;;;;;;;;;;5054939;28;20285;-48
2021/01/04 06:02:23;;;;;;;6.97;3.50;;;;;;;;;;5055753;28;20543;-47
2021/01/04 06:04:49;;;;;;;5.80;4.13;;;;;;;;;;5072356;28;20576;-47
2021/01/04 06:07:15;;;;;;;6.93;3.80;;;;;;;;;;5044950;28;20562;-48
2021/01/04 06:09:41;;;;;;;6.57;3.70;;;;;;;;;;5057028;28;20214;-48
2021/01/04 06:12:14;;;;;;;4.55;3.55;;;;;;;;;;5055540;28;20218;-48
2021/01/04 06:14:40;;;;;;;4.22;3.65;;;;;;;;;;5061875;28;20305;-48
2021/01/04 06:17:07;;;;;;;4.85;3.75;;;;;;;;;;5058385;28;20250;-48
2021/01/04 06:19:34;;;;;;;4.90;3.95;;;;;;;;;;5054613;28;20608;-48
2021/01/04 06:22:08;;;;;;;5.28;3.75;;;;;;;;;;5044804;28;20174;-48
2021/01/04 06:24:35;;;;;;;4.40;3.10;;;;;;;;;;5075166;28;20167;-48
2021/01/04 06:27:08;;;;;;;5.10;3.90;;;;;;;;;;5068414;28;20174;-48
2021/01/04 06:29:37;;;;;;;5.35;3.53;;;;;;;;;;5069794;28;20545;-48
2021/01/04 06:32:05;;;;;;;6.57;4.18;;;;;;;;;;5067258;28;20239;-48
2021/01/04 06:34:32;;;;;;;4.32;3.50;;;;;;;;;;5054118;28;20192;-48
2021/01/04 06:37:17;;;;;;;4.07;3.67;;;;;;;;;;5066351;28;20183;-48
2021/01/04 06:39:43;;;;;;;5.00;3.85;;;;;;;;;;5054371;28;20289;-47
2021/01/04 06:42:20;;;;;;;4.80;3.78;;;;;;;;;;5060113;28;20183;-48
2021/01/04 06:45:05;;;;;;;4.85;3.38;;;;;;;;;;5074957;28;20545;-48
2021/01/04 06:47:47;;;;;;;4.22;3.55;;;;;;;;;;5063602;28;20183;-48
2021/01/04 06:50:13;;;;;;;4.80;3.80;;;;;;;;;;5052768;28;20443;-48
2021/01/04 06:53:01;;;;;;;5.57;3.83;;;;;;;;;;5070144;28;20265;-48
2021/01/04 06:56:02;;;;;;;4.90;3.50;;;;;;;;;;5049765;28;20673;-48
2021/01/04 06:58:42;;;;;;;6.28;3.95;;;;;;;;;;5012264;28;20237;-48
2021/01/04 07:01:17;;;;;;;5.22;3.78;;;;;;;;;;5042063;28;20191;-48
2021/01/04 07:04:03;;;;;;;5.05;3.63;;;;;;;;;;5058180;28;20428;-48
2021/01/04 07:06:29;;;;;;;4.55;3.72;;;;;;;;;;5070514;28;20470;-48
2021/01/04 07:08:55;;;;;;;4.05;3.65;;;;;;;;;;5074510;28;20188;-48
2021/01/04 07:11:21;;;;;;;4.60;3.35;;;;;;;;;;5068238;28;20179;-48
2021/01/04 07:13:56;;;;;;;3.95;3.55;;;;;;;;;;5064903;28;20195;-48
2021/01/04 07:16:36;;;;;;;5.43;3.80;;;;;;;;;;5046617;28;20404;-48
2021/01/04 07:19:14;;;;;;;4.85;3.72;;;;;;;;;;5067225;28;20182;-48
2021/01/04 07:21:40;;;;;;;4.45;3.30;;;;;;;;;;5062266;28;20197;-48
2021/01/04 07:24:26;;;;;;;4.28;3.55;;;;;;;;;;5074517;28;20167;-48
2021/01/04 07:27:13;;;;;;;3.70;3.33;;;;;;;;;;5056855;28;20270;-48
2021/01/04 07:29:52;;;;;;;4.05;3.63;;;;;;;;;;5061263;28;20319;-48
2021/01/04 07:32:21;;;;;;;6.20;2.70;;;;;;;;;;5045596;28;20179;-48
2021/01/04 07:35:05;;;;;;;3.55;3.25;;;;;;;;;;5050784;28;20202;-48
2021/01/04 07:37:50;;;;;;;3.80;3.40;;;;;;;;;;5057352;28;20187;-48
2021/01/04 07:40:34;;;;;;;4.07;3.50;;;;;;;;;;5054664;28;20196;-48
2021/01/04 07:42:59;;;;;;;4.15;3.08;;;;;;;;;;5072678;28;20221;-48
2021/01/04 07:45:44;;;;;;;4.45;3.50;;;;;;;;;;5071529;28;20574;-48
2021/01/04 07:48:29;;;;;;;3.78;3.28;;;;;;;;;;5057918;28;20187;-48
2021/01/04 07:50:55;;;;;;;3.40;3.08;;;;;;;;;;5052727;28;20179;-48
2021/01/04 07:53:33;;;;;;;4.50;3.20;;;;;;;;;;5066468;28;20205;-50
2021/01/04 07:56:27;;;;;;;3.38;3.00;;;;;;;;;;5065450;28;20206;-51
2021/01/04 07:58:58;;;;;;;3.55;3.25;;;;;;;;;;5071360;28;20185;-48
2021/01/04 08:01:33;;;;;;;3.90;3.30;;;;;;;;;;5058857;28;20179;-48
2021/01/04 08:03:59;;;;;;;4.25;3.38;;;;;;;;;;5064921;28;20179;-48
2021/01/04 08:06:44;;;;;;;3.53;3.10;;;;;;;;;;5044194;28;20578;-48
2021/01/04 08:09:10;;;;;;;4.25;3.10;;;;;;;;;;5054283;28;20190;-48
2021/01/04 08:11:39;;;;;;;4.13;3.35;;;;;;;;;;5040312;28;20188;-48
2021/01/04 08:14:23;;;;;;;3.67;3.25;;;;;;;;;;5052061;28;20187;-48
2021/01/04 08:16:51;;;;;;;3.28;2.80;;;;;;;;;;5054223;28;20190;-48
2021/01/04 08:19:18;;;;;;;3.58;3.22;;;;;;;;;;5056960;28;20263;-48
2021/01/04 08:21:53;;;;;;;4.10;3.30;;;;;;;;;;5037231;28;20207;-49
2021/01/04 08:24:40;;;;;;;3.30;3.00;;;;;;;;;;5064612;28;20303;-48
2021/01/04 08:27:17;;;;;;;3.70;3.38;;;;;;;;;;5061209;28;20240;-48
2021/01/04 08:29:56;;;;;;;3.40;3.10;;;;;;;;;;5062829;28;20187;-48
2021/01/04 08:32:45;;;;;;;3.55;2.92;;;;;;;;;;5054778;28;20179;-48
2021/01/04 08:35:17;;;;;;;5.40;3.28;;;;;;;;;;5060247;28;20249;-48
2021/01/04 08:37:44;;;;;;;3.75;3.25;;;;;;;;;;5073129;28;20485;-48
2021/01/04 08:40:13;;;;;;;5.00;3.55;;;;;;;;;;5056481;28;20194;-48
2021/01/04 08:42:40;;;;;;;3.92;3.03;;;;;;;;;;5041687;28;20181;-48
2021/01/04 08:45:08;;;;;;;4.00;2.95;;;;;;;;;;5057998;28;20492;-48
2021/01/04 08:47:36;;;;;;;4.28;3.30;;;;;;;;;;5059511;28;20175;-48
2021/01/04 08:50:02;;;;;;;3.17;2.88;;;;;;;;;;5058332;28;20182;-48
2021/01/04 08:52:38;;;;;;;6.43;3.00;;;;;;;;;;5057964;28;20175;-48
2021/01/04 08:55:04;;;;;;;4.13;3.28;;;;;;;;;;5064565;28;20182;-48
2021/01/04 08:57:43;;;;;;;5.45;3.20;;;;;;;;;;5053489;28;20257;-48
2021/01/04 09:00:15;;;;;;;4.75;3.10;;;;;;;;;;5057555;28;20210;-48
2021/01/04 09:02:42;;;;;;;5.80;3.22;;;;;;;;;;5070961;28;20258;-48
2021/01/04 09:05:12;;;;;;;3.70;3.25;;;;;;;;;;5068079;28;20330;-48
2021/01/04 09:07:52;;;;;;;3.30;3.00;;;;;;;;;;5065118;28;20971;-48
2021/01/04 09:10:20;;;;;;;4.28;3.03;;;;;;;;;;5061834;28;20559;-48
2021/01/04 09:12:48;;;;;;;3.50;3.00;;;;;;;;;;5067107;28;20218;-48
2021/01/04 09:15:34;;;;;;;4.15;3.20;;;;;;;;;;5058235;28;20199;-48
2021/01/04 09:18:00;;;;;;;4.68;3.05;;;;;;;;;;5057557;28;20229;-48
2021/01/04 09:20:26;;;;;;;3.25;2.95;;;;;;;;;;5069083;28;20209;-48
2021/01/04 09:23:13;;;;;;;3.90;3.10;;;;;;;;;;5076825;28;20175;-48
2021/01/04 09:25:44;;;;;;;5.68;3.50;;;;;;;;;;5037439;28;20191;-48
2021/01/04 09:28:11;;;;;;;4.20;3.33;;;;;;;;;;5062776;28;20174;-48
2021/01/04 09:30:37;;;;;;;3.63;3.20;;;;;;;;;;5058853;28;20183;-49
2021/01/04 09:33:04;;;;;;;3.40;3.10;;;;;;;;;;5071225;28;20197;-48
2021/01/04 09:35:30;;;;;;;3.20;2.90;;;;;;;;;;5052539;28;20204;-48
2021/01/04 09:38:00;;;;;;;3.15;2.85;;;;;;;;;;5058810;28;20193;-48
2021/01/04 09:40:26;;;;;;;4.15;3.22;;;;;;;;;;5076422;28;20187;-48
2021/01/04 09:43:02;;;;;;;3.30;3.00;;;;;;;;;;5065140;28;20179;-48
2021/01/04 09:45:29;;;;;;;3.10;2.80;;;;;;;;;;5058073;28;20179;-50
2021/01/04 09:47:59;;;;;;;4.63;3.15;;;;;;;;;;5055611;28;20278;-48
2021/01/04 09:50:30;;;;;;;3.08;2.78;;;;;;;;;;5056078;28;20202;-48
2021/01/04 09:52:59;;;;;;;3.75;2.92;;;;;;;;;;5058149;28;20573;-48
2021/01/04 09:55:28;;;;;;;4.07;3.25;;;;;;;;;;5058794;28;20199;-48
2021/01/04 09:57:57;;;;;;;3.10;2.80;;;;;;;;;;5056329;28;20221;-48
2021/01/04 10:00:25;;;;;;;4.22;3.35;;;;;;;;;;5055791;28;20254;-48
2021/01/04 10:02:59;;;;;;;4.50;3.30;;;;;;;;;;5056087;28;20179;-48
2021/01/04 10:05:32;;;;;;;3.38;3.00;;;;;;;;;;5069595;28;20269;-48
2021/01/04 10:07:58;;;;;;;3.70;3.10;;;;;;;;;;5075399;28;20554;-48
2021/01/04 10:10:24;;;;;;;3.75;3.30;;;;;;;;;;5075994;28;20162;-48
2021/01/04 10:12:50;;;;;;;5.75;3.35;;;;;;;;;;5075502;28;20208;-48
2021/01/04 10:15:25;;;;;;;3.55;3.17;;;;;;;;;;5073508;28;20190;-48
2021/01/04 10:18:12;;;;;;;3.72;3.30;;;;;;;;;;5064960;28;20202;-48
2021/01/04 10:20:41;;;;;;;3.85;3.30;;;;;;;;;;5054154;28;20212;-48
2021/01/04 10:23:08;;;;;;;2.95;2.70;;;;;;;;;;5058539;28;20267;-48
2021/01/04 10:25:40;;;;;;;3.42;3.13;;;;;;;;;;5046448;28;20202;-48
2021/01/04 10:28:07;;;;;;;3.90;3.42;;;;;;;;;;5039924;28;20175;-48
2021/01/04 10:30:33;;;;;;;3.40;3.10;;;;;;;;;;5055155;28;20550;-49
2021/01/04 10:33:19;;;;;;;3.15;2.85;;;;;;;;;;5054066;28;20240;-48
2021/01/04 10:35:45;;;;;;;3.60;3.00;;;;;;;;;;5059562;28;20524;-48
2021/01/04 10:38:13;;;;;;;3.75;3.35;;;;;;;;;;5073039;28;20186;-48
2021/01/04 10:40:50;;;;;;;4.47;3.33;;;;;;;;;;5073412;28;20224;-48
2021/01/04 10:43:17;;;;;;;3.85;2.92;;;;;;;;;;5063813;28;20489;-48
2021/01/04 10:45:44;;;;;;;3.15;2.85;;;;;;;;;;5052186;28;20188;-48
2021/01/04 10:48:13;;;;;;;3.28;2.80;;;;;;;;;;5056549;28;20179;-48
2021/01/04 10:50:40;;;;;;;3.47;2.88;;;;;;;;;;5053895;28;20175;-48
2021/01/04 10:53:08;;;;;;;3.58;3.28;;;;;;;;;;5068527;28;20197;-48
2021/01/04 10:55:37;;;;;;;3.33;3.03;;;;;;;;;;5068564;28;20197;-48
2021/01/04 10:58:14;;;;;;;4.22;3.10;;;;;;;;;;5060146;28;20175;-48
2021/01/04 11:00:48;;;;;;;3.45;3.15;;;;;;;;;;5050454;28;20183;-48
2021/01/04 11:03:15;;;;;;;3.85;3.03;;;;;;;;;;5066326;28;20194;-48
2021/01/04 11:05:42;;;;;;;4.30;3.38;;;;;;;;;;5058291;28;20243;-48
2021/01/04 11:08:11;;;;;;;3.40;3.10;;;;;;;;;;5071383;28;20269;-47
2021/01/04 11:10:38;;;;;;;3.63;3.33;;;;;;;;;;5074203;28;20186;-48
2021/01/04 11:13:04;;;;;;;3.72;3.00;;;;;;;;;;5034517;28;20180;-48
2021/01/04 11:15:31;;;;;;;4.10;3.20;;;;;;;;;;5041975;28;20203;-48
2021/01/04 11:17:59;;;;;;;3.83;3.38;;;;;;;;;;5047399;28;20244;-48
2021/01/04 11:20:25;;;;;;;3.67;3.08;;;;;;;;;;5060940;28;20271;-48
2021/01/04 11:23:10;;;;;;;3.78;3.38;;;;;;;;;;5045274;28;20259;-48
2021/01/04 11:25:37;;;;;;;3.78;3.33;;;;;;;;;;5057536;28;20611;-50
2021/01/04 11:28:04;;;;;;;4.03;3.42;;;;;;;;;;5049751;28;20178;-48
2021/01/04 11:30:30;;;;;;;3.40;3.10;;;;;;;;;;5061261;28;20184;-48
2021/01/04 11:32:57;;;;;;;3.20;2.90;;;;;;;;;;5042185;28;20177;-48
2021/01/04 11:35:23;;;;;;;3.92;3.38;;;;;;;;;;5061879;28;20195;-48
2021/01/04 11:37:50;;;;;;;4.28;3.28;;;;;;;;;;5045393;28;20185;-48
2021/01/04 11:40:16;;;;;;;3.88;3.10;;;;;;;;;;5065121;28;20421;-48
2021/01/04 11:42:43;;;;;;;3.80;3.45;;;;;;;;;;5074451;28;20186;-48
2021/01/04 11:45:10;;;;;;;5.60;3.63;;;;;;;;;;5064212;28;20182;-47
2021/01/04 11:47:36;;;;;;;4.30;3.47;;;;;;;;;;5045926;28;20711;-47
2021/01/04 11:50:05;;;;;;;3.60;3.22;;;;;;;;;;5068074;28;20179;-48
2021/01/04 11:52:32;;;;;;;3.63;3.20;;;;;;;;;;5034654;28;20206;-48
2021/01/04 11:54:58;;;;;;;4.47;3.50;;;;;;;;;;5063254;28;20195;-48
2021/01/04 11:57:23;;;;;;;4.30;3.30;;;;;;;;;;5048414;28;20547;-47
2021/01/04 11:59:49;;;;;;;3.78;3.38;;;;;;;;;;5040601;28;20183;-47
2021/01/04 12:02:15;;;;;;;5.43;3.42;;;;;;;;;;5053493;28;20187;-47
2021/01/04 12:04:41;;;;;;;4.45;3.38;;;;;;;;;;5064962;28;20453;-48
2021/01/04 12:07:08;;;;;;;5.70;4.00;;;;;;;;;;5058792;28;20452;-48
2021/01/04 12:09:35;;;;;;;5.68;3.80;;;;;;;;;;5062255;28;20221;-48
2021/01/04 12:12:01;;;;;;;4.43;3.65;;;;;;;;;;5068607;28;20228;-48
2021/01/04 12:14:27;;;;;;;4.70;3.53;;;;;;;;;;5060686;28;20190;-47
2021/01/04 12:16:53;;;;;;;3.63;3.33;;;;;;;;;;5042400;28;20180;-48
2021/01/04 12:19:19;;;;;;;4.88;3.72;;;;;;;;;;5057519;28;20590;-47
2021/01/04 12:21:45;;;;;;;6.38;3.55;;;;;;;;;;5069883;28;20520;-49
2021/01/04 12:24:11;;;;;;;6.07;3.63;;;;;;;;;;5056679;28;20163;-48
2021/01/04 12:26:37;;;;;;;4.60;3.38;;;;;;;;;;5057126;28;20190;-48
2021/01/04 12:29:03;;;;;;;5.18;3.75;;;;;;;;;;5060506;28;20262;-47
2021/01/04 12:31:29;;;;;;;4.43;3.63;;;;;;;;;;5076691;28;20178;-48
2021/01/04 12:33:55;;;;;;;3.83;3.40;;;;;;;;;;5070646;28;20191;-48
2021/01/04 12:36:23;;;;;;;5.75;3.85;;;;;;;;;;5058343;28;20217;-48
2021/01/04 12:38:49;;;;;;;5.20;4.10;;;;;;;;;;5057738;28;20217;-48
2021/01/04 12:41:15;;;;;;;6.40;4.13;;;;;;;;;;5075664;28;20503;-48
2021/01/04 12:43:43;;;;;;;6.63;4.75;;;;;;;;;;5063671;28;20178;-48
2021/01/04 12:46:09;;;;;;;7.00;4.93;;;;;;;;;;5071604;28;20274;-48
2021/01/04 12:48:35;;;;;;;8.70;5.03;;;;;;;;;;5062181;28;20245;-48
2021/01/04 12:51:01;;;;;;;6.75;4.82;;;;;;;;;;5067242;28;20190;-48
2021/01/04 12:53:27;;;;;;;6.90;5.00;;;;;;;;;;5077464;28;20170;-48
2021/01/04 12:55:53;;;;;;;6.35;5.03;;;;;;;;;;5067558;28;20469;-48
2021/01/04 12:58:20;;;;;;;7.55;5.70;;;;;;;;;;5058307;28;20275;-48
2021/01/04 13:00:48;;;;;;;6.40;4.63;;;;;;;;;;5056757;28;20207;-48
2021/01/04 13:03:14;;;;;;;6.68;4.95;;;;;;;;;;5073780;28;20189;-48
2021/01/04 13:05:41;;;;;;;6.80;5.15;;;;;;;;;;5069565;28;20195;-48
2021/01/04 13:08:07;;;;;;;7.35;5.28;;;;;;;;;;5067903;28;20562;-47
2021/01/04 13:10:33;;;;;;;9.35;5.05;;;;;;;;;;5077473;28;20450;-47
2021/01/04 13:12:59;;;;;;;6.60;5.05;;;;;;;;;;5065402;28;20195;-48
2021/01/04 13:15:25;;;;;;;6.55;4.80;;;;;;;;;;5060305;28;20201;-47
2021/01/04 13:17:51;;;;;;;5.63;4.82;;;;;;;;;;5062491;28;20188;-48
2021/01/04 13:20:17;;;;;;;7.55;4.72;;;;;;;;;;5047962;28;20195;-48
2021/01/04 13:22:43;;;;;;;8.30;4.60;;;;;;;;;;5066200;28;20260;-47
2021/01/04 13:25:11;;;;;;;6.88;5.00;;;;;;;;;;5062046;28;20507;-48
2021/01/04 13:27:37;;;;;;;8.20;5.20;;;;;;;;;;5068954;28;20273;-47
2021/01/04 13:30:04;;;;;;;7.00;4.90;;;;;;;;;;5058491;28;20191;-48
2021/01/04 13:32:30;;;;;;;8.18;4.80;;;;;;;;;;5075081;28;20182;-47
2021/01/04 13:34:56;;;;;;;6.07;4.60;;;;;;;;;;5064672;28;20191;-47
2021/01/04 13:37:22;;;;;;;6.75;4.63;;;;;;;;;;5068955;28;20441;-47
2021/01/04 13:39:49;;;;;;;10.30;4.82;;;;;;;;;;5056351;28;20229;-47
2021/01/04 13:42:15;;;;;;;5.63;4.32;;;;;;;;;;5059266;28;20194;-47
2021/01/04 13:44:41;;;;;;;8.00;5.07;;;;;;;;;;5051801;28;20185;-47
2021/01/04 13:47:09;;;;;;;5.75;4.57;;;;;;;;;;5065962;28;20515;-48
2021/01/04 13:49:35;;;;;;;8.63;4.15;;;;;;;;;;5054454;28;20181;-48
2021/01/04 13:52:01;;;;;;;7.72;4.53;;;;;;;;;;5066034;28;20768;-47
2021/01/04 13:54:27;;;;;;;6.35;4.68;;;;;;;;;;5063604;28;20168;-47
2021/01/04 13:56:54;;;;;;;8.23;5.00;;;;;;;;;;5055627;28;20231;-48
2021/01/04 13:59:21;;;;;;;7.53;5.10;;;;;;;;;;5066032;28;20174;-47
2021/01/04 14:01:47;;;;;;;6.35;4.20;;;;;;;;;;5042495;28;20567;-48
2021/01/04 14:04:15;;;;;;;7.10;4.45;;;;;;;;;;5065901;28;20186;-48
2021/01/04 14:06:42;;;;;;;5.93;4.15;;;;;;;;;;5050371;28;20241;-47
2021/01/04 14:09:08;;;;;;;5.97;4.70;;;;;;;;;;5040750;28;20194;-48
2021/01/04 14:11:34;;;;;;;7.63;4.82;;;;;;;;;;5035530;28;20191;-48
2021/01/04 14:14:01;;;;;;;8.73;4.60;;;;;;;;;;5060113;28;20218;-48
2021/01/04 14:16:27;;;;;;;6.55;4.45;;;;;;;;;;5061779;28;20748;-47
2021/01/04 14:18:54;;;;;;;5.93;4.50;;;;;;;;;;5054851;28;20202;-47
2021/01/04 14:21:22;;;;;;;7.65;4.50;;;;;;;;;;5055217;28;20178;-48
2021/01/04 14:23:48;;;;;;;7.00;4.00;;;;;;;;;;5067436;28;20229;-47
2021/01/04 14:26:20;;;;;;;6.57;4.07;;;;;;;;;;5053656;28;20559;-48
2021/01/04 14:28:45;;;;;;;7.25;4.82;;;;;;;;;;5058013;28;20186;-48
2021/01/04 14:31:12;;;;;;;10.93;4.97;;;;;;;;;;5056023;28;20183;-47
2021/01/04 14:33:37;;;;;;;7.45;4.90;;;;;;;;;;5051939;28;20771;-48
2021/01/04 14:36:04;;;;;;;5.60;4.57;;;;;;;;;;5046342;28;20208;-49
2021/01/04 14:38:30;;;;;;;11.70;4.50;;;;;;;;;;5051114;28;20167;-47
2021/01/04 14:40:56;;;;;;;4.88;4.18;;;;;;;;;;5053047;28;20222;-47
2021/01/04 14:43:22;;;;;;;7.43;4.30;;;;;;;;;;5035299;28;20567;-48
2021/01/04 14:45:48;;;;;;;6.97;4.65;;;;;;;;;;5049801;28;20195;-47
2021/01/04 14:48:14;;;;;;;6.88;4.50;;;;;;;;;;5049297;28;20183;-47
2021/01/04 14:50:40;;;;;;;6.60;4.55;;;;;;;;;;5053303;28;20509;-48
2021/01/04 14:53:06;;;;;;;5.82;4.20;;;;;;;;;;5053916;28;20448;-47
2021/01/04 14:55:32;;;;;;;6.80;4.28;;;;;;;;;;5050466;28;20200;-47
2021/01/04 14:57:58;;;;;;;7.35;4.38;;;;;;;;;;5036798;28;20186;-47
2021/01/04 15:00:24;;;;;;;9.65;4.97;;;;;;;;;;5064727;28;20204;-47
2021/01/04 15:02:50;;;;;;;5.60;4.05;;;;;;;;;;5069103;28;20225;-47
2021/01/04 15:05:16;;;;;;;7.63;4.55;;;;;;;;;;5064651;28;20211;-48